sensor_id;sensor_type;location;lat;lon;timestamp;P1;durP1;ratioP1;P2;durP2;ratioP2
76228;SDS011;65021;53.174;18.160;2023-07-20T00:00:06;8.80;;;4.20;;
76228;SDS011;65021;53.174;18.160;2023-07-20T00:03:09;6.50;;;3.60;;
76228;SDS011;65021;53.174;18.160;2023-07-20T00:05:37;8.00;;;4.00;;
76228;SDS011;65021;53.174;18.160;2023-07-20T00:08:04;6.40;;;3.60;;
76228;SDS011;65021;53.174;18.160;2023-07-20T00:10:30;10.30;;;4.90;;
76228;SDS011;65021;53.174;18.160;2023-07-20T00:12:57;7.30;;;3.80;;
76228;SDS011;65021;53.174;18.160;2023-07-20T00:15:23;7.10;;;3.80;;
76228;SDS011;65021;53.174;18.160;2023-07-20T00:17:50;6.00;;;3.20;;
76228;SDS011;65021;53.174;18.160;2023-07-20T00:20:16;5.70;;;3.00;;
76228;SDS011;65021;53.174;18.160;2023-07-20T00:22:44;10.40;;;3.90;;
76228;SDS011;65021;53.174;18.160;2023-07-20T00:25:10;8.40;;;4.40;;
76228;SDS011;65021;53.174;18.160;2023-07-20T00:27:39;6.50;;;4.10;;
76228;SDS011;65021;53.174;18.160;2023-07-20T00:30:06;6.40;;;3.30;;
76228;SDS011;65021;53.174;18.160;2023-07-20T00:32:33;7.30;;;3.20;;
76228;SDS011;65021;53.174;18.160;2023-07-20T00:34:59;8.40;;;3.30;;
76228;SDS011;65021;53.174;18.160;2023-07-20T00:37:26;11.00;;;4.50;;
76228;SDS011;65021;53.174;18.160;2023-07-20T00:39:53;11.30;;;5.30;;
76228;SDS011;65021;53.174;18.160;2023-07-20T00:42:19;9.80;;;4.30;;
76228;SDS011;65021;53.174;18.160;2023-07-20T00:44:46;8.20;;;4.00;;
76228;SDS011;65021;53.174;18.160;2023-07-20T00:47:13;6.60;;;3.60;;
76228;SDS011;65021;53.174;18.160;2023-07-20T00:49:39;5.90;;;3.60;;
76228;SDS011;65021;53.174;18.160;2023-07-20T00:52:07;5.50;;;3.10;;
76228;SDS011;65021;53.174;18.160;2023-07-20T00:54:34;6.70;;;3.20;;
76228;SDS011;65021;53.174;18.160;2023-07-20T00:57:00;6.30;;;2.80;;
76228;SDS011;65021;53.174;18.160;2023-07-20T00:59:27;5.70;;;3.80;;
76228;SDS011;65021;53.174;18.160;2023-07-20T01:01:54;6.10;;;3.20;;
76228;SDS011;65021;53.174;18.160;2023-07-20T01:04:21;6.40;;;2.70;;
76228;SDS011;65021;53.174;18.160;2023-07-20T01:06:53;6.60;;;3.40;;
76228;SDS011;65021;53.174;18.160;2023-07-20T01:14:26;6.80;;;4.20;;
76228;SDS011;65021;53.174;18.160;2023-07-20T01:16:53;7.20;;;4.50;;
76228;SDS011;65021;53.174;18.160;2023-07-20T01:19:20;8.10;;;5.70;;
76228;SDS011;65021;53.174;18.160;2023-07-20T01:30:52;5.50;;;3.30;;
76228;SDS011;65021;53.174;18.160;2023-07-20T01:33:24;6.90;;;3.20;;
76228;SDS011;65021;53.174;18.160;2023-07-20T01:35:56;5.00;;;3.20;;
76228;SDS011;65021;53.174;18.160;2023-07-20T01:38:25;7.00;;;2.60;;
76228;SDS011;65021;53.174;18.160;2023-07-20T01:40:52;4.80;;;2.80;;
76228;SDS011;65021;53.174;18.160;2023-07-20T01:43:19;4.80;;;3.00;;
76228;SDS011;65021;53.174;18.160;2023-07-20T01:45:45;5.90;;;3.20;;
76228;SDS011;65021;53.174;18.160;2023-07-20T01:48:12;5.60;;;3.80;;
76228;SDS011;65021;53.174;18.160;2023-07-20T01:50:38;7.10;;;2.70;;
76228;SDS011;65021;53.174;18.160;2023-07-20T01:53:05;5.40;;;3.10;;
76228;SDS011;65021;53.174;18.160;2023-07-20T01:55:31;7.80;;;4.20;;
76228;SDS011;65021;53.174;18.160;2023-07-20T01:57:58;8.10;;;4.20;;
76228;SDS011;65021;53.174;18.160;2023-07-20T02:00:26;8.40;;;4.30;;
76228;SDS011;65021;53.174;18.160;2023-07-20T02:02:53;6.60;;;3.90;;
76228;SDS011;65021;53.174;18.160;2023-07-20T02:05:19;6.70;;;4.30;;
76228;SDS011;65021;53.174;18.160;2023-07-20T02:07:46;7.10;;;4.20;;
76228;SDS011;65021;53.174;18.160;2023-07-20T02:10:12;8.70;;;4.80;;
76228;SDS011;65021;53.174;18.160;2023-07-20T02:12:39;7.90;;;4.60;;
76228;SDS011;65021;53.174;18.160;2023-07-20T02:15:06;7.10;;;4.60;;
76228;SDS011;65021;53.174;18.160;2023-07-20T02:17:33;9.50;;;6.10;;
76228;SDS011;65021;53.174;18.160;2023-07-20T02:19:59;8.20;;;4.90;;
76228;SDS011;65021;53.174;18.160;2023-07-20T02:22:26;10.20;;;5.90;;
76228;SDS011;65021;53.174;18.160;2023-07-20T02:24:52;9.10;;;4.90;;
76228;SDS011;65021;53.174;18.160;2023-07-20T02:27:19;9.90;;;5.60;;
76228;SDS011;65021;53.174;18.160;2023-07-20T02:29:46;10.50;;;5.80;;
76228;SDS011;65021;53.174;18.160;2023-07-20T02:32:12;7.80;;;4.40;;
76228;SDS011;65021;53.174;18.160;2023-07-20T02:34:39;9.80;;;5.40;;
76228;SDS011;65021;53.174;18.160;2023-07-20T02:37:05;7.20;;;4.30;;
76228;SDS011;65021;53.174;18.160;2023-07-20T02:39:32;10.20;;;5.00;;
76228;SDS011;65021;53.174;18.160;2023-07-20T02:41:59;7.30;;;3.90;;
76228;SDS011;65021;53.174;18.160;2023-07-20T02:44:25;7.00;;;4.10;;
76228;SDS011;65021;53.174;18.160;2023-07-20T02:46:52;7.00;;;3.70;;
76228;SDS011;65021;53.174;18.160;2023-07-20T02:49:18;6.40;;;3.40;;
76228;SDS011;65021;53.174;18.160;2023-07-20T02:51:45;6.00;;;3.30;;
76228;SDS011;65021;53.174;18.160;2023-07-20T02:54:12;6.50;;;3.30;;
76228;SDS011;65021;53.174;18.160;2023-07-20T02:56:39;8.10;;;3.80;;
76228;SDS011;65021;53.174;18.160;2023-07-20T02:59:05;5.70;;;3.20;;
76228;SDS011;65021;53.174;18.160;2023-07-20T03:01:32;6.00;;;3.20;;
76228;SDS011;65021;53.174;18.160;2023-07-20T03:03:58;6.40;;;3.40;;
76228;SDS011;65021;53.174;18.160;2023-07-20T03:06:25;9.00;;;3.80;;
76228;SDS011;65021;53.174;18.160;2023-07-20T03:08:51;5.70;;;3.30;;
76228;SDS011;65021;53.174;18.160;2023-07-20T03:11:19;5.70;;;3.10;;
76228;SDS011;65021;53.174;18.160;2023-07-20T03:13:47;4.10;;;2.50;;
76228;SDS011;65021;53.174;18.160;2023-07-20T03:16:18;5.90;;;3.10;;
76228;SDS011;65021;53.174;18.160;2023-07-20T03:18:46;6.30;;;3.30;;
76228;SDS011;65021;53.174;18.160;2023-07-20T03:21:12;7.20;;;3.00;;
76228;SDS011;65021;53.174;18.160;2023-07-20T03:23:40;5.30;;;2.50;;
76228;SDS011;65021;53.174;18.160;2023-07-20T03:26:07;5.90;;;2.80;;
76228;SDS011;65021;53.174;18.160;2023-07-20T03:28:37;5.70;;;3.10;;
76228;SDS011;65021;53.174;18.160;2023-07-20T03:31:04;5.20;;;2.30;;
76228;SDS011;65021;53.174;18.160;2023-07-20T03:33:31;4.80;;;2.70;;
76228;SDS011;65021;53.174;18.160;2023-07-20T03:35:58;6.40;;;2.40;;
76228;SDS011;65021;53.174;18.160;2023-07-20T03:38:25;6.30;;;2.40;;
76228;SDS011;65021;53.174;18.160;2023-07-20T03:40:54;5.00;;;2.20;;
76228;SDS011;65021;53.174;18.160;2023-07-20T03:43:25;4.70;;;2.30;;
76228;SDS011;65021;53.174;18.160;2023-07-20T03:45:53;6.50;;;2.60;;
76228;SDS011;65021;53.174;18.160;2023-07-20T03:48:21;6.60;;;3.10;;
76228;SDS011;65021;53.174;18.160;2023-07-20T03:50:50;4.60;;;2.50;;
76228;SDS011;65021;53.174;18.160;2023-07-20T03:53:17;4.10;;;2.00;;
76228;SDS011;65021;53.174;18.160;2023-07-20T03:55:45;5.00;;;2.30;;
76228;SDS011;65021;53.174;18.160;2023-07-20T03:58:13;5.10;;;2.20;;
76228;SDS011;65021;53.174;18.160;2023-07-20T04:00:43;6.50;;;2.10;;
76228;SDS011;65021;53.174;18.160;2023-07-20T04:03:10;4.90;;;2.00;;
76228;SDS011;65021;53.174;18.160;2023-07-20T04:05:37;3.90;;;1.70;;
76228;SDS011;65021;53.174;18.160;2023-07-20T04:08:04;4.40;;;2.10;;
76228;SDS011;65021;53.174;18.160;2023-07-20T04:10:30;3.30;;;1.80;;
76228;SDS011;65021;53.174;18.160;2023-07-20T04:12:57;6.10;;;1.80;;
76228;SDS011;65021;53.174;18.160;2023-07-20T04:15:23;6.60;;;2.10;;
76228;SDS011;65021;53.174;18.160;2023-07-20T04:17:50;5.20;;;2.20;;
76228;SDS011;65021;53.174;18.160;2023-07-20T04:20:16;5.20;;;1.90;;
76228;SDS011;65021;53.174;18.160;2023-07-20T04:22:44;5.00;;;1.90;;
76228;SDS011;65021;53.174;18.160;2023-07-20T04:25:11;5.20;;;2.10;;
76228;SDS011;65021;53.174;18.160;2023-07-20T04:27:37;5.10;;;2.40;;
76228;SDS011;65021;53.174;18.160;2023-07-20T04:30:06;5.60;;;2.30;;
76228;SDS011;65021;53.174;18.160;2023-07-20T04:32:34;5.00;;;2.50;;
76228;SDS011;65021;53.174;18.160;2023-07-20T04:35:00;7.20;;;2.80;;
76228;SDS011;65021;53.174;18.160;2023-07-20T04:37:27;4.50;;;2.20;;
76228;SDS011;65021;53.174;18.160;2023-07-20T04:39:53;4.20;;;2.50;;
76228;SDS011;65021;53.174;18.160;2023-07-20T04:42:20;10.60;;;3.10;;
76228;SDS011;65021;53.174;18.160;2023-07-20T04:44:46;4.80;;;2.50;;
76228;SDS011;65021;53.174;18.160;2023-07-20T04:47:13;4.80;;;2.20;;
76228;SDS011;65021;53.174;18.160;2023-07-20T04:49:40;6.30;;;3.00;;
76228;SDS011;65021;53.174;18.160;2023-07-20T04:52:06;4.40;;;2.40;;
76228;SDS011;65021;53.174;18.160;2023-07-20T04:54:33;7.70;;;3.00;;
76228;SDS011;65021;53.174;18.160;2023-07-20T04:56:59;5.80;;;2.60;;
76228;SDS011;65021;53.174;18.160;2023-07-20T04:59:26;5.40;;;2.20;;
76228;SDS011;65021;53.174;18.160;2023-07-20T05:01:53;5.10;;;2.10;;
76228;SDS011;65021;53.174;18.160;2023-07-20T05:04:19;5.80;;;2.50;;
76228;SDS011;65021;53.174;18.160;2023-07-20T05:06:46;4.70;;;2.50;;
76228;SDS011;65021;53.174;18.160;2023-07-20T05:09:12;4.60;;;2.10;;
76228;SDS011;65021;53.174;18.160;2023-07-20T05:11:39;5.30;;;1.80;;
76228;SDS011;65021;53.174;18.160;2023-07-20T05:14:05;6.40;;;2.20;;
76228;SDS011;65021;53.174;18.160;2023-07-20T05:16:32;3.90;;;1.70;;
76228;SDS011;65021;53.174;18.160;2023-07-20T05:18:58;4.90;;;1.60;;
76228;SDS011;65021;53.174;18.160;2023-07-20T05:21:25;5.80;;;2.10;;
76228;SDS011;65021;53.174;18.160;2023-07-20T05:23:51;4.80;;;2.00;;
76228;SDS011;65021;53.174;18.160;2023-07-20T05:26:18;6.40;;;2.00;;
76228;SDS011;65021;53.174;18.160;2023-07-20T05:28:44;5.60;;;2.40;;
76228;SDS011;65021;53.174;18.160;2023-07-20T05:31:11;4.50;;;2.10;;
76228;SDS011;65021;53.174;18.160;2023-07-20T05:33:37;5.30;;;2.00;;
76228;SDS011;65021;53.174;18.160;2023-07-20T05:36:04;5.50;;;1.80;;
76228;SDS011;65021;53.174;18.160;2023-07-20T05:38:31;4.80;;;1.80;;
76228;SDS011;65021;53.174;18.160;2023-07-20T05:40:59;5.50;;;1.90;;
76228;SDS011;65021;53.174;18.160;2023-07-20T05:43:29;6.90;;;2.10;;
76228;SDS011;65021;53.174;18.160;2023-07-20T05:45:56;6.00;;;1.80;;
76228;SDS011;65021;53.174;18.160;2023-07-20T05:48:23;4.20;;;1.80;;
76228;SDS011;65021;53.174;18.160;2023-07-20T05:50:50;4.00;;;2.00;;
76228;SDS011;65021;53.174;18.160;2023-07-20T05:53:17;4.90;;;1.90;;
76228;SDS011;65021;53.174;18.160;2023-07-20T05:55:43;5.00;;;2.00;;
76228;SDS011;65021;53.174;18.160;2023-07-20T05:58:10;5.00;;;1.70;;
76228;SDS011;65021;53.174;18.160;2023-07-20T06:00:36;4.90;;;1.90;;
76228;SDS011;65021;53.174;18.160;2023-07-20T06:03:03;7.30;;;1.90;;
76228;SDS011;65021;53.174;18.160;2023-07-20T06:05:30;4.20;;;1.70;;
76228;SDS011;65021;53.174;18.160;2023-07-20T06:07:56;5.20;;;1.60;;
76228;SDS011;65021;53.174;18.160;2023-07-20T06:10:24;3.80;;;1.60;;
76228;SDS011;65021;53.174;18.160;2023-07-20T06:12:51;4.70;;;1.70;;
76228;SDS011;65021;53.174;18.160;2023-07-20T06:15:27;5.70;;;1.60;;
76228;SDS011;65021;53.174;18.160;2023-07-20T06:18:02;4.30;;;1.30;;
76228;SDS011;65021;53.174;18.160;2023-07-20T06:20:30;3.40;;;1.50;;
76228;SDS011;65021;53.174;18.160;2023-07-20T06:22:56;4.80;;;1.20;;
76228;SDS011;65021;53.174;18.160;2023-07-20T06:25:23;4.70;;;1.50;;
76228;SDS011;65021;53.174;18.160;2023-07-20T06:27:50;2.80;;;1.00;;
76228;SDS011;65021;53.174;18.160;2023-07-20T06:30:19;4.00;;;1.30;;
76228;SDS011;65021;53.174;18.160;2023-07-20T06:32:46;2.70;;;1.10;;
76228;SDS011;65021;53.174;18.160;2023-07-20T06:35:13;4.50;;;1.40;;
76228;SDS011;65021;53.174;18.160;2023-07-20T06:37:40;3.80;;;1.10;;
76228;SDS011;65021;53.174;18.160;2023-07-20T06:40:06;2.80;;;0.90;;
76228;SDS011;65021;53.174;18.160;2023-07-20T06:42:35;3.60;;;1.20;;
76228;SDS011;65021;53.174;18.160;2023-07-20T06:45:02;4.10;;;1.20;;
76228;SDS011;65021;53.174;18.160;2023-07-20T06:47:28;3.20;;;1.30;;
76228;SDS011;65021;53.174;18.160;2023-07-20T06:49:55;2.80;;;1.10;;
76228;SDS011;65021;53.174;18.160;2023-07-20T06:52:21;4.10;;;1.10;;
76228;SDS011;65021;53.174;18.160;2023-07-20T06:54:48;3.80;;;1.40;;
76228;SDS011;65021;53.174;18.160;2023-07-20T06:57:14;3.50;;;1.20;;
76228;SDS011;65021;53.174;18.160;2023-07-20T06:59:41;3.90;;;1.10;;
76228;SDS011;65021;53.174;18.160;2023-07-20T07:02:08;4.10;;;1.10;;
76228;SDS011;65021;53.174;18.160;2023-07-20T07:04:34;3.30;;;1.10;;
76228;SDS011;65021;53.174;18.160;2023-07-20T07:07:01;3.10;;;1.00;;
76228;SDS011;65021;53.174;18.160;2023-07-20T07:09:29;2.80;;;0.80;;
76228;SDS011;65021;53.174;18.160;2023-07-20T07:11:55;2.80;;;0.80;;
76228;SDS011;65021;53.174;18.160;2023-07-20T07:14:22;2.90;;;1.10;;
76228;SDS011;65021;53.174;18.160;2023-07-20T07:16:48;3.50;;;1.30;;
76228;SDS011;65021;53.174;18.160;2023-07-20T07:19:15;8.50;;;1.60;;
76228;SDS011;65021;53.174;18.160;2023-07-20T07:21:41;3.80;;;1.30;;
76228;SDS011;65021;53.174;18.160;2023-07-20T07:24:08;3.40;;;1.40;;
76228;SDS011;65021;53.174;18.160;2023-07-20T07:26:36;4.40;;;1.70;;
76228;SDS011;65021;53.174;18.160;2023-07-20T07:29:03;5.60;;;1.60;;
76228;SDS011;65021;53.174;18.160;2023-07-20T07:31:29;5.60;;;1.60;;
76228;SDS011;65021;53.174;18.160;2023-07-20T07:33:56;3.90;;;1.40;;
76228;SDS011;65021;53.174;18.160;2023-07-20T07:36:23;3.60;;;1.20;;
76228;SDS011;65021;53.174;18.160;2023-07-20T07:38:51;4.20;;;1.60;;
76228;SDS011;65021;53.174;18.160;2023-07-20T07:41:17;3.50;;;1.10;;
76228;SDS011;65021;53.174;18.160;2023-07-20T07:43:44;4.30;;;0.90;;
76228;SDS011;65021;53.174;18.160;2023-07-20T07:46:10;2.80;;;1.00;;
76228;SDS011;65021;53.174;18.160;2023-07-20T07:48:37;3.80;;;1.20;;
76228;SDS011;65021;53.174;18.160;2023-07-20T07:51:03;3.20;;;0.90;;
76228;SDS011;65021;53.174;18.160;2023-07-20T07:53:30;3.30;;;1.20;;
76228;SDS011;65021;53.174;18.160;2023-07-20T07:55:56;2.20;;;0.80;;
76228;SDS011;65021;53.174;18.160;2023-07-20T07:58:23;3.30;;;1.10;;
76228;SDS011;65021;53.174;18.160;2023-07-20T08:00:50;2.30;;;0.80;;
76228;SDS011;65021;53.174;18.160;2023-07-20T08:03:16;2.20;;;0.90;;
76228;SDS011;65021;53.174;18.160;2023-07-20T08:05:43;4.60;;;1.10;;
76228;SDS011;65021;53.174;18.160;2023-07-20T08:08:09;3.60;;;0.90;;
76228;SDS011;65021;53.174;18.160;2023-07-20T08:10:36;4.80;;;1.00;;
76228;SDS011;65021;53.174;18.160;2023-07-20T08:13:02;4.40;;;1.00;;
76228;SDS011;65021;53.174;18.160;2023-07-20T08:15:29;3.00;;;0.70;;
76228;SDS011;65021;53.174;18.160;2023-07-20T08:17:55;4.50;;;1.00;;
76228;SDS011;65021;53.174;18.160;2023-07-20T08:20:22;2.50;;;0.70;;
76228;SDS011;65021;53.174;18.160;2023-07-20T08:22:53;4.80;;;1.00;;
76228;SDS011;65021;53.174;18.160;2023-07-20T08:25:21;4.40;;;0.90;;
76228;SDS011;65021;53.174;18.160;2023-07-20T08:27:48;2.40;;;0.80;;
76228;SDS011;65021;53.174;18.160;2023-07-20T08:30:14;3.30;;;1.00;;
76228;SDS011;65021;53.174;18.160;2023-07-20T08:32:41;3.20;;;0.70;;
76228;SDS011;65021;53.174;18.160;2023-07-20T08:35:07;2.90;;;0.70;;
76228;SDS011;65021;53.174;18.160;2023-07-20T08:37:34;2.80;;;0.80;;
76228;SDS011;65021;53.174;18.160;2023-07-20T08:40:01;1.90;;;0.80;;
76228;SDS011;65021;53.174;18.160;2023-07-20T08:42:27;2.80;;;0.70;;
76228;SDS011;65021;53.174;18.160;2023-07-20T08:44:54;3.10;;;0.90;;
76228;SDS011;65021;53.174;18.160;2023-07-20T08:47:22;2.50;;;0.70;;
76228;SDS011;65021;53.174;18.160;2023-07-20T08:49:48;1.70;;;0.60;;
76228;SDS011;65021;53.174;18.160;2023-07-20T08:52:15;2.60;;;0.90;;
76228;SDS011;65021;53.174;18.160;2023-07-20T08:54:42;4.00;;;0.80;;
76228;SDS011;65021;53.174;18.160;2023-07-20T08:57:09;1.90;;;0.70;;
76228;SDS011;65021;53.174;18.160;2023-07-20T08:59:40;2.20;;;0.80;;
76228;SDS011;65021;53.174;18.160;2023-07-20T09:02:07;2.80;;;0.70;;
76228;SDS011;65021;53.174;18.160;2023-07-20T09:04:37;3.10;;;0.80;;
76228;SDS011;65021;53.174;18.160;2023-07-20T09:07:04;3.30;;;0.80;;
76228;SDS011;65021;53.174;18.160;2023-07-20T09:09:31;2.70;;;0.70;;
76228;SDS011;65021;53.174;18.160;2023-07-20T09:11:57;2.20;;;0.60;;
76228;SDS011;65021;53.174;18.160;2023-07-20T09:14:24;5.10;;;0.80;;
76228;SDS011;65021;53.174;18.160;2023-07-20T09:16:52;2.60;;;0.90;;
76228;SDS011;65021;53.174;18.160;2023-07-20T09:19:20;2.60;;;0.90;;
76228;SDS011;65021;53.174;18.160;2023-07-20T09:21:48;4.70;;;0.90;;
76228;SDS011;65021;53.174;18.160;2023-07-20T09:24:19;2.30;;;0.70;;
76228;SDS011;65021;53.174;18.160;2023-07-20T09:26:47;2.40;;;0.80;;
76228;SDS011;65021;53.174;18.160;2023-07-20T09:29:14;2.80;;;0.70;;
76228;SDS011;65021;53.174;18.160;2023-07-20T09:31:58;3.00;;;0.80;;
76228;SDS011;65021;53.174;18.160;2023-07-20T09:34:27;3.90;;;0.90;;
76228;SDS011;65021;53.174;18.160;2023-07-20T09:36:55;5.80;;;0.90;;
76228;SDS011;65021;53.174;18.160;2023-07-20T09:39:22;4.70;;;0.90;;
76228;SDS011;65021;53.174;18.160;2023-07-20T09:41:48;3.30;;;0.80;;
76228;SDS011;65021;53.174;18.160;2023-07-20T09:44:15;5.20;;;0.90;;
76228;SDS011;65021;53.174;18.160;2023-07-20T09:46:45;3.90;;;0.90;;
76228;SDS011;65021;53.174;18.160;2023-07-20T09:49:13;5.80;;;1.10;;
76228;SDS011;65021;53.174;18.160;2023-07-20T09:51:40;2.30;;;0.70;;
76228;SDS011;65021;53.174;18.160;2023-07-20T09:54:08;2.80;;;0.90;;
76228;SDS011;65021;53.174;18.160;2023-07-20T09:56:35;3.10;;;0.70;;
76228;SDS011;65021;53.174;18.160;2023-07-20T09:59:04;1.50;;;0.50;;
76228;SDS011;65021;53.174;18.160;2023-07-20T10:01:30;2.90;;;0.80;;
76228;SDS011;65021;53.174;18.160;2023-07-20T10:03:59;2.20;;;0.70;;
76228;SDS011;65021;53.174;18.160;2023-07-20T10:06:29;2.10;;;0.80;;
76228;SDS011;65021;53.174;18.160;2023-07-20T10:09:00;1.60;;;0.60;;
76228;SDS011;65021;53.174;18.160;2023-07-20T10:11:30;1.40;;;0.60;;
76228;SDS011;65021;53.174;18.160;2023-07-20T10:13:59;2.00;;;0.50;;
76228;SDS011;65021;53.174;18.160;2023-07-20T10:16:31;4.00;;;0.80;;
76228;SDS011;65021;53.174;18.160;2023-07-20T10:21:40;1.60;;;0.60;;
76228;SDS011;65021;53.174;18.160;2023-07-20T10:24:08;1.60;;;0.60;;
76228;SDS011;65021;53.174;18.160;2023-07-20T10:26:37;0.70;;;0.40;;
76228;SDS011;65021;53.174;18.160;2023-07-20T10:29:04;2.40;;;0.60;;
76228;SDS011;65021;53.174;18.160;2023-07-20T10:31:32;1.20;;;0.40;;
76228;SDS011;65021;53.174;18.160;2023-07-20T10:33:59;2.00;;;0.70;;
76228;SDS011;65021;53.174;18.160;2023-07-20T10:36:27;2.00;;;0.60;;
76228;SDS011;65021;53.174;18.160;2023-07-20T10:38:55;0.90;;;0.40;;
76228;SDS011;65021;53.174;18.160;2023-07-20T10:44:03;2.20;;;0.80;;
76228;SDS011;65021;53.174;18.160;2023-07-20T10:49:10;1.50;;;0.70;;
76228;SDS011;65021;53.174;18.160;2023-07-20T10:51:47;1.70;;;0.60;;
76228;SDS011;65021;53.174;18.160;2023-07-20T10:56:42;2.10;;;0.70;;
76228;SDS011;65021;53.174;18.160;2023-07-20T11:01:55;2.30;;;0.70;;
76228;SDS011;65021;53.174;18.160;2023-07-20T11:07:05;1.50;;;0.70;;
76228;SDS011;65021;53.174;18.160;2023-07-20T11:09:35;1.90;;;0.80;;
76228;SDS011;65021;53.174;18.160;2023-07-20T11:12:09;1.00;;;0.40;;
76228;SDS011;65021;53.174;18.160;2023-07-20T11:14:53;2.20;;;0.60;;
76228;SDS011;65021;53.174;18.160;2023-07-20T11:17:21;1.90;;;0.60;;
76228;SDS011;65021;53.174;18.160;2023-07-20T11:19:56;3.50;;;0.70;;
76228;SDS011;65021;53.174;18.160;2023-07-20T11:22:24;2.50;;;0.60;;
76228;SDS011;65021;53.174;18.160;2023-07-20T11:24:50;2.00;;;0.70;;
76228;SDS011;65021;53.174;18.160;2023-07-20T11:27:21;2.30;;;0.70;;
76228;SDS011;65021;53.174;18.160;2023-07-20T11:29:50;2.00;;;0.70;;
76228;SDS011;65021;53.174;18.160;2023-07-20T11:32:20;4.00;;;0.60;;
76228;SDS011;65021;53.174;18.160;2023-07-20T11:34:48;2.20;;;0.60;;
76228;SDS011;65021;53.174;18.160;2023-07-20T11:37:15;2.90;;;0.80;;
76228;SDS011;65021;53.174;18.160;2023-07-20T11:39:42;4.50;;;0.70;;
76228;SDS011;65021;53.174;18.160;2023-07-20T11:42:09;3.00;;;0.70;;
76228;SDS011;65021;53.174;18.160;2023-07-20T11:44:37;3.20;;;0.80;;
76228;SDS011;65021;53.174;18.160;2023-07-20T11:47:05;5.70;;;0.70;;
76228;SDS011;65021;53.174;18.160;2023-07-20T11:49:34;3.30;;;0.70;;
76228;SDS011;65021;53.174;18.160;2023-07-20T11:52:06;5.80;;;0.80;;
76228;SDS011;65021;53.174;18.160;2023-07-20T11:54:39;2.00;;;0.50;;
76228;SDS011;65021;53.174;18.160;2023-07-20T11:57:07;2.60;;;0.80;;
76228;SDS011;65021;53.174;18.160;2023-07-20T11:59:34;3.40;;;0.80;;
76228;SDS011;65021;53.174;18.160;2023-07-20T12:02:01;2.10;;;0.40;;
76228;SDS011;65021;53.174;18.160;2023-07-20T12:04:30;5.10;;;0.90;;
76228;SDS011;65021;53.174;18.160;2023-07-20T12:06:58;1.20;;;0.40;;
76228;SDS011;65021;53.174;18.160;2023-07-20T12:09:25;6.40;;;0.90;;
76228;SDS011;65021;53.174;18.160;2023-07-20T12:11:52;3.90;;;0.80;;
76228;SDS011;65021;53.174;18.160;2023-07-20T12:14:19;2.70;;;0.70;;
76228;SDS011;65021;53.174;18.160;2023-07-20T12:16:51;3.90;;;0.90;;
76228;SDS011;65021;53.174;18.160;2023-07-20T12:19:20;3.00;;;1.10;;
76228;SDS011;65021;53.174;18.160;2023-07-20T12:21:46;3.10;;;0.80;;
76228;SDS011;65021;53.174;18.160;2023-07-20T12:24:13;3.60;;;0.90;;
76228;SDS011;65021;53.174;18.160;2023-07-20T12:26:39;1.20;;;0.40;;
76228;SDS011;65021;53.174;18.160;2023-07-20T12:29:06;2.80;;;0.60;;
76228;SDS011;65021;53.174;18.160;2023-07-20T12:31:33;2.80;;;0.70;;
76228;SDS011;65021;53.174;18.160;2023-07-20T12:34:02;1.90;;;0.50;;
76228;SDS011;65021;53.174;18.160;2023-07-20T12:36:29;3.10;;;1.00;;
76228;SDS011;65021;53.174;18.160;2023-07-20T12:38:58;4.10;;;0.70;;
76228;SDS011;65021;53.174;18.160;2023-07-20T12:41:24;2.50;;;0.60;;
76228;SDS011;65021;53.174;18.160;2023-07-20T12:43:51;1.50;;;0.60;;
76228;SDS011;65021;53.174;18.160;2023-07-20T12:46:20;1.40;;;0.60;;
76228;SDS011;65021;53.174;18.160;2023-07-20T12:48:46;1.70;;;0.70;;
76228;SDS011;65021;53.174;18.160;2023-07-20T12:51:13;2.20;;;0.70;;
76228;SDS011;65021;53.174;18.160;2023-07-20T12:53:40;3.80;;;0.70;;
76228;SDS011;65021;53.174;18.160;2023-07-20T12:56:07;2.10;;;0.80;;
76228;SDS011;65021;53.174;18.160;2023-07-20T12:58:33;2.30;;;0.50;;
76228;SDS011;65021;53.174;18.160;2023-07-20T13:01:01;2.50;;;0.80;;
76228;SDS011;65021;53.174;18.160;2023-07-20T13:03:27;2.30;;;0.80;;
76228;SDS011;65021;53.174;18.160;2023-07-20T13:05:54;1.70;;;0.60;;
76228;SDS011;65021;53.174;18.160;2023-07-20T13:08:21;3.80;;;0.90;;
76228;SDS011;65021;53.174;18.160;2023-07-20T13:10:51;2.70;;;0.60;;
76228;SDS011;65021;53.174;18.160;2023-07-20T13:13:18;2.50;;;0.80;;
76228;SDS011;65021;53.174;18.160;2023-07-20T13:15:45;2.20;;;0.70;;
76228;SDS011;65021;53.174;18.160;2023-07-20T13:18:12;2.30;;;0.70;;
76228;SDS011;65021;53.174;18.160;2023-07-20T13:20:39;2.40;;;0.80;;
76228;SDS011;65021;53.174;18.160;2023-07-20T13:23:05;2.70;;;0.80;;
76228;SDS011;65021;53.174;18.160;2023-07-20T13:25:32;3.20;;;0.70;;
76228;SDS011;65021;53.174;18.160;2023-07-20T13:27:59;1.80;;;0.60;;
76228;SDS011;65021;53.174;18.160;2023-07-20T13:30:25;0.70;;;0.50;;
76228;SDS011;65021;53.174;18.160;2023-07-20T13:32:52;1.90;;;0.60;;
76228;SDS011;65021;53.174;18.160;2023-07-20T13:35:19;2.20;;;0.70;;
76228;SDS011;65021;53.174;18.160;2023-07-20T13:37:45;3.30;;;0.80;;
76228;SDS011;65021;53.174;18.160;2023-07-20T13:40:12;3.00;;;0.60;;
76228;SDS011;65021;53.174;18.160;2023-07-20T13:42:40;1.40;;;0.50;;
76228;SDS011;65021;53.174;18.160;2023-07-20T13:45:06;1.10;;;0.50;;
76228;SDS011;65021;53.174;18.160;2023-07-20T13:47:34;1.20;;;0.50;;
76228;SDS011;65021;53.174;18.160;2023-07-20T13:50:00;1.30;;;0.70;;
76228;SDS011;65021;53.174;18.160;2023-07-20T13:52:27;1.80;;;0.40;;
76228;SDS011;65021;53.174;18.160;2023-07-20T13:54:53;1.10;;;0.60;;
76228;SDS011;65021;53.174;18.160;2023-07-20T13:57:20;1.20;;;0.50;;
76228;SDS011;65021;53.174;18.160;2023-07-20T13:59:47;1.30;;;0.60;;
76228;SDS011;65021;53.174;18.160;2023-07-20T14:02:13;1.70;;;0.30;;
76228;SDS011;65021;53.174;18.160;2023-07-20T14:04:41;2.30;;;0.50;;
76228;SDS011;65021;53.174;18.160;2023-07-20T14:07:08;1.10;;;0.40;;
76228;SDS011;65021;53.174;18.160;2023-07-20T14:09:35;1.70;;;0.60;;
76228;SDS011;65021;53.174;18.160;2023-07-20T14:12:01;0.80;;;0.50;;
76228;SDS011;65021;53.174;18.160;2023-07-20T14:14:28;2.70;;;1.10;;
76228;SDS011;65021;53.174;18.160;2023-07-20T14:16:54;1.80;;;0.60;;
76228;SDS011;65021;53.174;18.160;2023-07-20T14:19:22;1.70;;;0.60;;
76228;SDS011;65021;53.174;18.160;2023-07-20T14:21:49;1.50;;;0.60;;
76228;SDS011;65021;53.174;18.160;2023-07-20T14:24:15;1.70;;;0.60;;
76228;SDS011;65021;53.174;18.160;2023-07-20T14:26:42;1.60;;;0.60;;
76228;SDS011;65021;53.174;18.160;2023-07-20T14:29:08;1.50;;;0.60;;
76228;SDS011;65021;53.174;18.160;2023-07-20T14:31:35;1.20;;;0.50;;
76228;SDS011;65021;53.174;18.160;2023-07-20T14:34:02;0.90;;;0.50;;
76228;SDS011;65021;53.174;18.160;2023-07-20T14:36:28;1.10;;;0.60;;
76228;SDS011;65021;53.174;18.160;2023-07-20T14:38:55;1.50;;;0.60;;
76228;SDS011;65021;53.174;18.160;2023-07-20T14:41:22;1.50;;;0.60;;
76228;SDS011;65021;53.174;18.160;2023-07-20T14:43:48;2.60;;;0.70;;
76228;SDS011;65021;53.174;18.160;2023-07-20T14:46:15;0.70;;;0.50;;
76228;SDS011;65021;53.174;18.160;2023-07-20T14:48:41;0.80;;;0.50;;
76228;SDS011;65021;53.174;18.160;2023-07-20T14:51:08;1.00;;;0.60;;
76228;SDS011;65021;53.174;18.160;2023-07-20T14:53:35;1.60;;;0.60;;
76228;SDS011;65021;53.174;18.160;2023-07-20T14:56:01;1.60;;;0.60;;
76228;SDS011;65021;53.174;18.160;2023-07-20T14:58:29;1.30;;;0.60;;
76228;SDS011;65021;53.174;18.160;2023-07-20T15:00:56;1.10;;;0.50;;
76228;SDS011;65021;53.174;18.160;2023-07-20T15:03:22;1.90;;;0.70;;